sensor_id;sensor_type;location;lat;lon;timestamp;temperature;humidity
15543;DHT22;7873;52.230;12.856;2023-02-18T00:01:28;24.30;40.30
15543;DHT22;7873;52.230;12.856;2023-02-18T00:03:56;24.30;40.40
15543;DHT22;7873;52.230;12.856;2023-02-18T00:06:23;24.30;40.40
15543;DHT22;7873;52.230;12.856;2023-02-18T00:08:52;24.20;40.40
15543;DHT22;7873;52.230;12.856;2023-02-18T00:11:22;24.10;40.50
15543;DHT22;7873;52.230;12.856;2023-02-18T00:13:49;24.10;40.60
15543;DHT22;7873;52.230;12.856;2023-02-18T00:16:17;24.10;40.70
15543;DHT22;7873;52.230;12.856;2023-02-18T00:18:43;24.00;40.70
15543;DHT22;7873;52.230;12.856;2023-02-18T00:21:10;24.00;40.80
15543;DHT22;7873;52.230;12.856;2023-02-18T00:23:37;24.00;40.80
15543;DHT22;7873;52.230;12.856;2023-02-18T00:26:05;24.00;40.80
15543;DHT22;7873;52.230;12.856;2023-02-18T00:28:34;24.00;40.90
15543;DHT22;7873;52.230;12.856;2023-02-18T00:31:04;23.90;40.90
15543;DHT22;7873;52.230;12.856;2023-02-18T00:33:32;23.90;40.90
15543;DHT22;7873;52.230;12.856;2023-02-18T00:36:02;23.80;41.00
15543;DHT22;7873;52.230;12.856;2023-02-18T00:38:29;23.80;41.20
15543;DHT22;7873;52.230;12.856;2023-02-18T00:40:56;23.80;41.40
15543;DHT22;7873;52.230;12.856;2023-02-18T00:43:23;23.80;41.40
15543;DHT22;7873;52.230;12.856;2023-02-18T00:45:51;23.70;41.40
15543;DHT22;7873;52.230;12.856;2023-02-18T00:48:17;23.70;41.40
15543;DHT22;7873;52.230;12.856;2023-02-18T00:50:44;23.70;41.40
15543;DHT22;7873;52.230;12.856;2023-02-18T00:53:11;23.60;41.40
15543;DHT22;7873;52.230;12.856;2023-02-18T00:55:38;23.60;41.50
15543;DHT22;7873;52.230;12.856;2023-02-18T00:58:05;23.60;41.60
15543;DHT22;7873;52.230;12.856;2023-02-18T01:00:32;23.60;41.60
15543;DHT22;7873;52.230;12.856;2023-02-18T01:03:00;23.60;41.60
15543;DHT22;7873;52.230;12.856;2023-02-18T01:05:26;23.50;41.60
15543;DHT22;7873;52.230;12.856;2023-02-18T01:07:53;23.50;41.60
15543;DHT22;7873;52.230;12.856;2023-02-18T01:10:20;23.50;41.60
15543;DHT22;7873;52.230;12.856;2023-02-18T01:12:47;23.50;41.70
15543;DHT22;7873;52.230;12.856;2023-02-18T01:15:14;23.50;41.70
15543;DHT22;7873;52.230;12.856;2023-02-18T01:17:41;23.50;41.70
15543;DHT22;7873;52.230;12.856;2023-02-18T01:20:10;23.40;41.70
15543;DHT22;7873;52.230;12.856;2023-02-18T01:22:38;23.40;41.80
15543;DHT22;7873;52.230;12.856;2023-02-18T01:25:05;23.40;41.80
15543;DHT22;7873;52.230;12.856;2023-02-18T01:27:32;23.40;41.80
15543;DHT22;7873;52.230;12.856;2023-02-18T01:29:59;23.40;41.80
15543;DHT22;7873;52.230;12.856;2023-02-18T01:32:26;23.30;41.80
15543;DHT22;7873;52.230;12.856;2023-02-18T01:34:52;23.30;41.80
15543;DHT22;7873;52.230;12.856;2023-02-18T01:37:20;23.30;41.90
15543;DHT22;7873;52.230;12.856;2023-02-18T01:39:47;23.20;41.90
15543;DHT22;7873;52.230;12.856;2023-02-18T01:42:16;23.20;42.00
15543;DHT22;7873;52.230;12.856;2023-02-18T01:44:45;23.20;42.00
15543;DHT22;7873;52.230;12.856;2023-02-18T01:47:12;23.20;42.00
15543;DHT22;7873;52.230;12.856;2023-02-18T01:49:39;23.20;42.00
15543;DHT22;7873;52.230;12.856;2023-02-18T01:52:07;23.20;42.10
15543;DHT22;7873;52.230;12.856;2023-02-18T01:54:40;23.20;42.10
15543;DHT22;7873;52.230;12.856;2023-02-18T01:57:11;23.20;42.00
15543;DHT22;7873;52.230;12.856;2023-02-18T01:59:40;23.10;42.10
15543;DHT22;7873;52.230;12.856;2023-02-18T02:02:10;23.10;42.10
15543;DHT22;7873;52.230;12.856;2023-02-18T02:04:39;23.10;42.10
15543;DHT22;7873;52.230;12.856;2023-02-18T02:07:06;23.10;42.20
15543;DHT22;7873;52.230;12.856;2023-02-18T02:09:33;23.00;42.10
15543;DHT22;7873;52.230;12.856;2023-02-18T02:17:55;23.00;42.30
15543;DHT22;7873;52.230;12.856;2023-02-18T02:26:57;22.90;42.30
15543;DHT22;7873;52.230;12.856;2023-02-18T02:29:50;22.90;42.40
15543;DHT22;7873;52.230;12.856;2023-02-18T02:35:41;22.80;42.40
15543;DHT22;7873;52.230;12.856;2023-02-18T02:38:18;22.80;42.40
15543;DHT22;7873;52.230;12.856;2023-02-18T02:40:54;22.80;42.50
15543;DHT22;7873;52.230;12.856;2023-02-18T02:43:29;22.80;42.40
15543;DHT22;7873;52.230;12.856;2023-02-18T02:46:01;22.80;42.40
15543;DHT22;7873;52.230;12.856;2023-02-18T02:48:32;22.80;42.50
15543;DHT22;7873;52.230;12.856;2023-02-18T02:51:08;22.80;42.50
15543;DHT22;7873;52.230;12.856;2023-02-18T02:53:39;22.70;42.50
15543;DHT22;7873;52.230;12.856;2023-02-18T02:56:08;22.70;42.40
15543;DHT22;7873;52.230;12.856;2023-02-18T02:58:39;22.70;42.50
15543;DHT22;7873;52.230;12.856;2023-02-18T03:01:14;22.70;42.50
15543;DHT22;7873;52.230;12.856;2023-02-18T03:03:57;22.70;42.50
15543;DHT22;7873;52.230;12.856;2023-02-18T03:06:40;22.70;42.50
15543;DHT22;7873;52.230;12.856;2023-02-18T03:09:15;22.60;42.50
15543;DHT22;7873;52.230;12.856;2023-02-18T03:11:46;22.70;42.50
15543;DHT22;7873;52.230;12.856;2023-02-18T03:14:23;22.60;42.50
15543;DHT22;7873;52.230;12.856;2023-02-18T03:16:57;22.60;42.60
15543;DHT22;7873;52.230;12.856;2023-02-18T03:19:27;22.60;42.60
15543;DHT22;7873;52.230;12.856;2023-02-18T03:21:59;22.60;42.60
15543;DHT22;7873;52.230;12.856;2023-02-18T03:24:31;22.60;42.60
15543;DHT22;7873;52.230;12.856;2023-02-18T03:27:03;22.60;42.60
15543;DHT22;7873;52.230;12.856;2023-02-18T03:29:33;22.60;42.60
15543;DHT22;7873;52.230;12.856;2023-02-18T03:32:02;22.50;42.60
15543;DHT22;7873;52.230;12.856;2023-02-18T03:34:33;22.50;42.60
15543;DHT22;7873;52.230;12.856;2023-02-18T03:37:07;22.50;42.60
15543;DHT22;7873;52.230;12.856;2023-02-18T03:39:35;22.50;42.70
15543;DHT22;7873;52.230;12.856;2023-02-18T03:42:04;22.50;42.70
15543;DHT22;7873;52.230;12.856;2023-02-18T03:44:31;22.50;42.60
15543;DHT22;7873;52.230;12.856;2023-02-18T03:46:58;22.40;42.60
15543;DHT22;7873;52.230;12.856;2023-02-18T03:49:25;22.50;42.70
15543;DHT22;7873;52.230;12.856;2023-02-18T03:51:51;22.40;42.70
15543;DHT22;7873;52.230;12.856;2023-02-18T03:54:19;22.40;42.70
15543;DHT22;7873;52.230;12.856;2023-02-18T03:56:46;22.40;42.70
15543;DHT22;7873;52.230;12.856;2023-02-18T03:59:13;22.40;42.70
15543;DHT22;7873;52.230;12.856;2023-02-18T04:01:39;22.40;42.80
15543;DHT22;7873;52.230;12.856;2023-02-18T04:04:06;22.40;42.70
15543;DHT22;7873;52.230;12.856;2023-02-18T04:06:33;22.40;42.80
15543;DHT22;7873;52.230;12.856;2023-02-18T04:09:00;22.30;42.80
15543;DHT22;7873;52.230;12.856;2023-02-18T04:11:34;22.30;42.80
15543;DHT22;7873;52.230;12.856;2023-02-18T04:14:02;22.30;42.80
15543;DHT22;7873;52.230;12.856;2023-02-18T04:16:28;22.30;42.80
15543;DHT22;7873;52.230;12.856;2023-02-18T04:18:55;22.30;42.80
15543;DHT22;7873;52.230;12.856;2023-02-18T04:21:22;22.30;42.80
15543;DHT22;7873;52.230;12.856;2023-02-18T04:23:48;22.30;42.80
15543;DHT22;7873;52.230;12.856;2023-02-18T04:26:15;22.30;42.80
15543;DHT22;7873;52.230;12.856;2023-02-18T04:28:43;22.30;42.80
15543;DHT22;7873;52.230;12.856;2023-02-18T04:31:10;22.30;42.80
15543;DHT22;7873;52.230;12.856;2023-02-18T04:33:36;22.20;42.80
15543;DHT22;7873;52.230;12.856;2023-02-18T04:36:03;22.20;42.80
15543;DHT22;7873;52.230;12.856;2023-02-18T04:38:31;22.20;42.90
15543;DHT22;7873;52.230;12.856;2023-02-18T04:40:57;22.20;42.90
15543;DHT22;7873;52.230;12.856;2023-02-18T04:43:24;22.20;42.80
15543;DHT22;7873;52.230;12.856;2023-02-18T04:45:52;22.20;42.90
15543;DHT22;7873;52.230;12.856;2023-02-18T04:48:19;22.20;42.90
15543;DHT22;7873;52.230;12.856;2023-02-18T04:50:45;22.20;42.90
15543;DHT22;7873;52.230;12.856;2023-02-18T04:53:12;22.10;42.80
15543;DHT22;7873;52.230;12.856;2023-02-18T04:55:39;22.10;42.90
15543;DHT22;7873;52.230;12.856;2023-02-18T04:58:05;22.10;42.80
15543;DHT22;7873;52.230;12.856;2023-02-18T05:00:34;22.10;42.80
15543;DHT22;7873;52.230;12.856;2023-02-18T05:03:02;22.10;42.90
15543;DHT22;7873;52.230;12.856;2023-02-18T05:05:29;22.10;42.90
15543;DHT22;7873;52.230;12.856;2023-02-18T05:07:55;22.10;42.90
15543;DHT22;7873;52.230;12.856;2023-02-18T05:10:22;22.10;43.00
15543;DHT22;7873;52.230;12.856;2023-02-18T05:12:49;22.10;42.90
15543;DHT22;7873;52.230;12.856;2023-02-18T05:15:15;22.10;43.00
15543;DHT22;7873;52.230;12.856;2023-02-18T05:17:42;22.00;42.80
15543;DHT22;7873;52.230;12.856;2023-02-18T05:20:10;22.10;42.90
15543;DHT22;7873;52.230;12.856;2023-02-18T05:22:38;22.10;42.90
15543;DHT22;7873;52.230;12.856;2023-02-18T05:25:05;22.10;42.90
15543;DHT22;7873;52.230;12.856;2023-02-18T05:27:32;22.00;42.90
15543;DHT22;7873;52.230;12.856;2023-02-18T05:29:58;22.00;43.60
15543;DHT22;7873;52.230;12.856;2023-02-18T05:32:25;22.00;42.90
15543;DHT22;7873;52.230;12.856;2023-02-18T05:34:52;22.00;43.00
15543;DHT22;7873;52.230;12.856;2023-02-18T05:37:20;22.00;43.00
15543;DHT22;7873;52.230;12.856;2023-02-18T05:39:46;21.90;42.90
15543;DHT22;7873;52.230;12.856;2023-02-18T05:42:13;21.90;42.90
15543;DHT22;7873;52.230;12.856;2023-02-18T05:44:40;22.00;42.30
15543;DHT22;7873;52.230;12.856;2023-02-18T05:47:08;22.00;41.00
15543;DHT22;7873;52.230;12.856;2023-02-18T05:49:36;22.00;40.60
15543;DHT22;7873;52.230;12.856;2023-02-18T05:52:04;22.10;40.00
15543;DHT22;7873;52.230;12.856;2023-02-18T05:54:32;22.10;40.00
15543;DHT22;7873;52.230;12.856;2023-02-18T05:56:59;22.20;40.60
15543;DHT22;7873;52.230;12.856;2023-02-18T05:59:26;22.30;41.00
15543;DHT22;7873;52.230;12.856;2023-02-18T06:01:53;22.30;41.10
15543;DHT22;7873;52.230;12.856;2023-02-18T06:04:19;22.40;40.90
15543;DHT22;7873;52.230;12.856;2023-02-18T06:06:46;22.50;40.80
15543;DHT22;7873;52.230;12.856;2023-02-18T06:09:13;22.50;40.60
15543;DHT22;7873;52.230;12.856;2023-02-18T06:11:41;22.60;40.30
15543;DHT22;7873;52.230;12.856;2023-02-18T06:14:08;22.70;40.30
15543;DHT22;7873;52.230;12.856;2023-02-18T06:16:34;22.70;40.40
15543;DHT22;7873;52.230;12.856;2023-02-18T06:19:01;22.70;40.30
15543;DHT22;7873;52.230;12.856;2023-02-18T06:21:28;22.70;40.50
15543;DHT22;7873;52.230;12.856;2023-02-18T06:23:55;22.80;40.40
15543;DHT22;7873;52.230;12.856;2023-02-18T06:26:21;22.80;40.30
15543;DHT22;7873;52.230;12.856;2023-02-18T06:28:49;22.70;40.60
15543;DHT22;7873;52.230;12.856;2023-02-18T06:31:16;22.70;40.50
15543;DHT22;7873;52.230;12.856;2023-02-18T06:33:43;22.70;40.80
15543;DHT22;7873;52.230;12.856;2023-02-18T06:36:10;22.70;40.70
15543;DHT22;7873;52.230;12.856;2023-02-18T06:38:37;22.60;41.10
15543;DHT22;7873;52.230;12.856;2023-02-18T06:41:04;22.70;40.80
15543;DHT22;7873;52.230;12.856;2023-02-18T06:43:31;22.70;41.10
15543;DHT22;7873;52.230;12.856;2023-02-18T06:45:59;22.60;41.10
15543;DHT22;7873;52.230;12.856;2023-02-18T06:48:26;22.60;41.40
15543;DHT22;7873;52.230;12.856;2023-02-18T06:50:53;22.60;41.10
15543;DHT22;7873;52.230;12.856;2023-02-18T06:53:20;22.70;41.20
15543;DHT22;7873;52.230;12.856;2023-02-18T06:55:46;22.70;41.10
15543;DHT22;7873;52.230;12.856;2023-02-18T06:58:14;22.70;41.20
15543;DHT22;7873;52.230;12.856;2023-02-18T07:00:41;22.60;40.80
15543;DHT22;7873;52.230;12.856;2023-02-18T07:03:09;22.60;41.00
15543;DHT22;7873;52.230;12.856;2023-02-18T07:05:36;22.50;41.00
15543;DHT22;7873;52.230;12.856;2023-02-18T07:08:03;22.50;41.20
15543;DHT22;7873;52.230;12.856;2023-02-18T07:10:30;22.50;41.40
15543;DHT22;7873;52.230;12.856;2023-02-18T07:12:57;22.50;41.40
15543;DHT22;7873;52.230;12.856;2023-02-18T07:15:23;22.50;41.30
15543;DHT22;7873;52.230;12.856;2023-02-18T07:17:52;22.50;41.60
15543;DHT22;7873;52.230;12.856;2023-02-18T07:20:20;22.50;41.90
15543;DHT22;7873;52.230;12.856;2023-02-18T07:22:47;22.40;40.00
15543;DHT22;7873;52.230;12.856;2023-02-18T07:25:14;22.30;39.40
15543;DHT22;7873;52.230;12.856;2023-02-18T07:27:42;22.30;40.00
15543;DHT22;7873;52.230;12.856;2023-02-18T07:30:11;22.40;40.10
15543;DHT22;7873;52.230;12.856;2023-02-18T07:32:41;22.40;40.10
15543;DHT22;7873;52.230;12.856;2023-02-18T07:35:09;22.40;40.10
15543;DHT22;7873;52.230;12.856;2023-02-18T07:37:44;22.30;40.40
15543;DHT22;7873;52.230;12.856;2023-02-18T07:40:15;22.30;40.70
15543;DHT22;7873;52.230;12.856;2023-02-18T07:42:46;22.30;40.60
15543;DHT22;7873;52.230;12.856;2023-02-18T07:45:15;22.30;40.90
15543;DHT22;7873;52.230;12.856;2023-02-18T07:47:45;22.30;40.80
15543;DHT22;7873;52.230;12.856;2023-02-18T07:50:15;22.40;40.90
15543;DHT22;7873;52.230;12.856;2023-02-18T07:52:46;22.30;40.90
15543;DHT22;7873;52.230;12.856;2023-02-18T07:55:17;22.40;40.90
15543;DHT22;7873;52.230;12.856;2023-02-18T07:57:47;22.40;40.70
15543;DHT22;7873;52.230;12.856;2023-02-18T08:00:26;22.40;40.90
15543;DHT22;7873;52.230;12.856;2023-02-18T08:02:54;22.30;40.90
15543;DHT22;7873;52.230;12.856;2023-02-18T08:05:23;22.30;40.90
15543;DHT22;7873;52.230;12.856;2023-02-18T08:07:54;22.30;40.80
15543;DHT22;7873;52.230;12.856;2023-02-18T08:10:21;22.30;41.10
15543;DHT22;7873;52.230;12.856;2023-02-18T08:12:50;22.30;40.90
15543;DHT22;7873;52.230;12.856;2023-02-18T08:15:20;22.20;41.10
15543;DHT22;7873;52.230;12.856;2023-02-18T08:17:50;22.20;41.40
15543;DHT22;7873;52.230;12.856;2023-02-18T08:20:21;22.10;40.70
15543;DHT22;7873;52.230;12.856;2023-02-18T08:22:49;22.10;41.70
15543;DHT22;7873;52.230;12.856;2023-02-18T08:25:22;22.10;40.90
15543;DHT22;7873;52.230;12.856;2023-02-18T08:27:51;22.00;41.30
15543;DHT22;7873;52.230;12.856;2023-02-18T08:30:18;22.00;40.30
15543;DHT22;7873;52.230;12.856;2023-02-18T08:32:49;21.90;40.90
15543;DHT22;7873;52.230;12.856;2023-02-18T08:35:18;22.00;40.70
15543;DHT22;7873;52.230;12.856;2023-02-18T08:37:47;22.00;41.00
15543;DHT22;7873;52.230;12.856;2023-02-18T08:40:17;21.90;40.60
15543;DHT22;7873;52.230;12.856;2023-02-18T08:42:47;22.00;41.10
15543;DHT22;7873;52.230;12.856;2023-02-18T08:45:15;22.00;41.00
15543;DHT22;7873;52.230;12.856;2023-02-18T08:47:44;22.00;41.00
15543;DHT22;7873;52.230;12.856;2023-02-18T08:50:14;22.00;41.00
15543;DHT22;7873;52.230;12.856;2023-02-18T08:52:45;22.00;41.00
15543;DHT22;7873;52.230;12.856;2023-02-18T08:55:14;21.90;41.00
15543;DHT22;7873;52.230;12.856;2023-02-18T08:57:45;21.90;40.70
15543;DHT22;7873;52.230;12.856;2023-02-18T09:00:17;22.00;40.90
15543;DHT22;7873;52.230;12.856;2023-02-18T09:02:47;22.00;40.50
15543;DHT22;7873;52.230;12.856;2023-02-18T09:05:15;21.90;40.30
15543;DHT22;7873;52.230;12.856;2023-02-18T09:07:44;21.90;40.30
15543;DHT22;7873;52.230;12.856;2023-02-18T09:10:13;21.90;40.10
15543;DHT22;7873;52.230;12.856;2023-02-18T09:12:42;21.90;40.90
15543;DHT22;7873;52.230;12.856;2023-02-18T09:15:10;21.80;40.10
15543;DHT22;7873;52.230;12.856;2023-02-18T09:17:38;21.80;40.00
15543;DHT22;7873;52.230;12.856;2023-02-18T09:20:05;21.70;40.10
15543;DHT22;7873;52.230;12.856;2023-02-18T09:22:33;21.70;40.50
15543;DHT22;7873;52.230;12.856;2023-02-18T09:25:00;21.70;40.70
15543;DHT22;7873;52.230;12.856;2023-02-18T09:27:26;21.70;40.00
15543;DHT22;7873;52.230;12.856;2023-02-18T09:29:53;21.60;39.40
15543;DHT22;7873;52.230;12.856;2023-02-18T09:32:20;21.40;40.40
15543;DHT22;7873;52.230;12.856;2023-02-18T09:34:48;21.30;40.80
15543;DHT22;7873;52.230;12.856;2023-02-18T09:37:15;21.40;40.90
15543;DHT22;7873;52.230;12.856;2023-02-18T09:39:41;21.50;40.90
15543;DHT22;7873;52.230;12.856;2023-02-18T09:42:10;21.50;40.80
15543;DHT22;7873;52.230;12.856;2023-02-18T09:44:41;21.60;40.80
15543;DHT22;7873;52.230;12.856;2023-02-18T09:47:10;21.50;40.70
15543;DHT22;7873;52.230;12.856;2023-02-18T09:49:39;21.60;40.70
15543;DHT22;7873;52.230;12.856;2023-02-18T09:52:12;21.50;40.70
15543;DHT22;7873;52.230;12.856;2023-02-18T09:54:41;21.60;40.90
15543;DHT22;7873;52.230;12.856;2023-02-18T09:57:11;21.60;40.90
15543;DHT22;7873;52.230;12.856;2023-02-18T09:59:43;21.60;40.40
15543;DHT22;7873;52.230;12.856;2023-02-18T10:02:12;21.20;40.90
15543;DHT22;7873;52.230;12.856;2023-02-18T10:04:42;21.00;41.80
15543;DHT22;7873;52.230;12.856;2023-02-18T10:09:44;21.40;43.10
15543;DHT22;7873;52.230;12.856;2023-02-18T10:12:12;21.90;42.30
15543;DHT22;7873;52.230;12.856;2023-02-18T10:14:41;22.20;41.50
15543;DHT22;7873;52.230;12.856;2023-02-18T10:17:09;22.50;40.70
15543;DHT22;7873;52.230;12.856;2023-02-18T10:19:40;22.50;40.40
15543;DHT22;7873;52.230;12.856;2023-02-18T10:22:09;22.60;39.80
15543;DHT22;7873;52.230;12.856;2023-02-18T10:24:40;22.60;40.30
15543;DHT22;7873;52.230;12.856;2023-02-18T10:27:09;22.70;40.10
15543;DHT22;7873;52.230;12.856;2023-02-18T10:29:43;22.60;39.90
15543;DHT22;7873;52.230;12.856;2023-02-18T10:32:11;22.80;39.70
15543;DHT22;7873;52.230;12.856;2023-02-18T10:34:45;23.00;39.70
15543;DHT22;7873;52.230;12.856;2023-02-18T10:37:22;22.80;39.80
15543;DHT22;7873;52.230;12.856;2023-02-18T10:40:05;22.70;40.90
15543;DHT22;7873;52.230;12.856;2023-02-18T10:42:38;22.40;39.90
15543;DHT22;7873;52.230;12.856;2023-02-18T10:45:17;22.10;41.30
15543;DHT22;7873;52.230;12.856;2023-02-18T10:47:50;22.00;41.60
15543;DHT22;7873;52.230;12.856;2023-02-18T10:50:28;21.80;41.90
15543;DHT22;7873;52.230;12.856;2023-02-18T10:52:59;21.70;42.30
15543;DHT22;7873;52.230;12.856;2023-02-18T10:55:37;21.60;42.50
15543;DHT22;7873;52.230;12.856;2023-02-18T10:58:09;21.60;43.00
15543;DHT22;7873;52.230;12.856;2023-02-18T11:00:50;21.70;42.80
15543;DHT22;7873;52.230;12.856;2023-02-18T11:03:18;21.90;42.10
15543;DHT22;7873;52.230;12.856;2023-02-18T11:05:47;22.10;42.40
15543;DHT22;7873;52.230;12.856;2023-02-18T11:08:17;22.30;43.80
15543;DHT22;7873;52.230;12.856;2023-02-18T11:10:48;22.50;41.90
15543;DHT22;7873;52.230;12.856;2023-02-18T11:13:16;22.60;41.90
15543;DHT22;7873;52.230;12.856;2023-02-18T11:15:54;22.60;41.30
15543;DHT22;7873;52.230;12.856;2023-02-18T11:18:28;22.50;41.90
15543;DHT22;7873;52.230;12.856;2023-02-18T11:20:59;22.50;42.10
15543;DHT22;7873;52.230;12.856;2023-02-18T11:23:26;22.40;42.10
15543;DHT22;7873;52.230;12.856;2023-02-18T11:25:55;22.40;41.80
15543;DHT22;7873;52.230;12.856;2023-02-18T11:28:40;22.50;42.10
15543;DHT22;7873;52.230;12.856;2023-02-18T11:31:10;22.40;42.60
15543;DHT22;7873;52.230;12.856;2023-02-18T11:33:42;22.40;42.50
15543;DHT22;7873;52.230;12.856;2023-02-18T11:36:16;22.30;43.20
15543;DHT22;7873;52.230;12.856;2023-02-18T11:38:48;22.20;42.70
15543;DHT22;7873;52.230;12.856;2023-02-18T11:41:19;22.20;42.60
15543;DHT22;7873;52.230;12.856;2023-02-18T11:43:48;22.00;43.00
15543;DHT22;7873;52.230;12.856;2023-02-18T11:46:18;22.00;42.80
15543;DHT22;7873;52.230;12.856;2023-02-18T11:48:47;21.90;42.80
15543;DHT22;7873;52.230;12.856;2023-02-18T11:51:16;21.90;43.10
15543;DHT22;7873;52.230;12.856;2023-02-18T11:53:57;21.80;43.00
15543;DHT22;7873;52.230;12.856;2023-02-18T11:56:28;21.80;43.00
15543;DHT22;7873;52.230;12.856;2023-02-18T11:58:57;21.70;43.10
15543;DHT22;7873;52.230;12.856;2023-02-18T12:01:36;21.70;43.30
15543;DHT22;7873;52.230;12.856;2023-02-18T12:04:09;21.60;43.30
15543;DHT22;7873;52.230;12.856;2023-02-18T12:06:41;21.50;43.50
15543;DHT22;7873;52.230;12.856;2023-02-18T12:09:16;21.50;43.40
15543;DHT22;7873;52.230;12.856;2023-02-18T12:11:52;21.50;43.50
15543;DHT22;7873;52.230;12.856;2023-02-18T12:14:22;21.50;43.50
15543;DHT22;7873;52.230;12.856;2023-02-18T12:19:59;21.40;43.40
15543;DHT22;7873;52.230;12.856;2023-02-18T12:22:41;21.40;44.10
15543;DHT22;7873;52.230;12.856;2023-02-18T12:25:14;21.40;43.40
15543;DHT22;7873;52.230;12.856;2023-02-18T12:27:53;21.40;43.40
15543;DHT22;7873;52.230;12.856;2023-02-18T12:30:31;21.40;43.40
15543;DHT22;7873;52.230;12.856;2023-02-18T12:33:21;21.40;43.40
15543;DHT22;7873;52.230;12.856;2023-02-18T12:36:00;21.40;43.40
15543;DHT22;7873;52.230;12.856;2023-02-18T12:38:39;21.40;43.50
15543;DHT22;7873;52.230;12.856;2023-02-18T12:41:28;21.40;44.00
15543;DHT22;7873;52.230;12.856;2023-02-18T12:44:06;21.40;43.70
15543;DHT22;7873;52.230;12.856;2023-02-18T12:49:43;21.40;43.50
15543;DHT22;7873;52.230;12.856;2023-02-18T12:52:20;21.50;43.50
15543;DHT22;7873;52.230;12.856;2023-02-18T12:55:01;21.50;43.50
15543;DHT22;7873;52.230;12.856;2023-02-18T12:57:44;21.60;43.80
15543;DHT22;7873;52.230;12.856;2023-02-18T13:00:33;21.70;43.80
15543;DHT22;7873;52.230;12.856;2023-02-18T13:03:37;21.90;43.40
15543;DHT22;7873;52.230;12.856;2023-02-18T13:06:22;22.20;42.30
15543;DHT22;7873;52.230;12.856;2023-02-18T13:09:05;22.60;41.70
15543;DHT22;7873;52.230;12.856;2023-02-18T13:11:42;22.90;41.20
15543;DHT22;7873;52.230;12.856;2023-02-18T13:14:17;23.20;41.50
15543;DHT22;7873;52.230;12.856;2023-02-18T13:16:50;23.40;41.50
15543;DHT22;7873;52.230;12.856;2023-02-18T13:19:19;23.60;40.80
15543;DHT22;7873;52.230;12.856;2023-02-18T13:21:48;23.90;40.60
15543;DHT22;7873;52.230;12.856;2023-02-18T13:24:21;24.00;40.00
15543;DHT22;7873;52.230;12.856;2023-02-18T13:27:05;24.20;39.70
15543;DHT22;7873;52.230;12.856;2023-02-18T13:29:50;24.40;39.50
15543;DHT22;7873;52.230;12.856;2023-02-18T13:32:34;24.60;39.20
15543;DHT22;7873;52.230;12.856;2023-02-18T13:35:16;24.80;39.00
15543;DHT22;7873;52.230;12.856;2023-02-18T13:38:11;24.90;39.30
15543;DHT22;7873;52.230;12.856;2023-02-18T13:41:05;25.10;38.80
15543;DHT22;7873;52.230;12.856;2023-02-18T13:47:49;25.40;39.60
15543;DHT22;7873;52.230;12.856;2023-02-18T13:51:01;25.30;39.70
15543;DHT22;7873;52.230;12.856;2023-02-18T13:54:24;25.50;39.00
15543;DHT22;7873;52.230;12.856;2023-02-18T13:57:40;25.80;38.60
15543;DHT22;7873;52.230;12.856;2023-02-18T14:18:06;26.50;37.70
15543;DHT22;7873;52.230;12.856;2023-02-18T14:41:46;26.70;36.30
15543;DHT22;7873;52.230;12.856;2023-02-18T14:48:21;26.50;36.70
15543;DHT22;7873;52.230;12.856;2023-02-18T14:51:30;26.40;37.20
15543;DHT22;7873;52.230;12.856;2023-02-18T14:54:19;26.40;36.60
15543;DHT22;7873;52.230;12.856;2023-02-18T14:57:30;26.40;37.10
15543;DHT22;7873;52.230;12.856;2023-02-18T15:00:29;26.30;37.10
15543;DHT22;7873;52.230;12.856;2023-02-18T15:03:25;26.20;37.60
15543;DHT22;7873;52.230;12.856;2023-02-18T15:13:18;26.10;37.20
15543;DHT22;7873;52.230;12.856;2023-02-18T15:16:03;26.10;36.60
15543;DHT22;7873;52.230;12.856;2023-02-18T15:18:53;26.10;37.50
15543;DHT22;7873;52.230;12.856;2023-02-18T15:21:40;26.50;37.00
15543;DHT22;7873;52.230;12.856;2023-02-18T15:24:22;26.90;36.70
15543;DHT22;7873;52.230;12.856;2023-02-18T15:30:24;27.30;35.90
15543;DHT22;7873;52.230;12.856;2023-02-18T15:33:29;27.40;35.90
15543;DHT22;7873;52.230;12.856;2023-02-18T15:36:21;27.50;35.70
15543;DHT22;7873;52.230;12.856;2023-02-18T15:39:13;27.40;35.80
15543;DHT22;7873;52.230;12.856;2023-02-18T15:42:21;27.60;35.60
15543;DHT22;7873;52.230;12.856;2023-02-18T15:45:18;27.60;35.80
15543;DHT22;7873;52.230;12.856;2023-02-18T15:48:28;27.70;35.80
15543;DHT22;7873;52.230;12.856;2023-02-18T15:54:43;27.70;35.70
15543;DHT22;7873;52.230;12.856;2023-02-18T16:01:24;27.50;34.80
15543;DHT22;7873;52.230;12.856;2023-02-18T16:04:18;26.40;35.90
15543;DHT22;7873;52.230;12.856;2023-02-18T16:07:50;26.30;37.10
15543;DHT22;7873;52.230;12.856;2023-02-18T16:10:41;26.50;37.10
15543;DHT22;7873;52.230;12.856;2023-02-18T16:13:12;26.70;37.10
15543;DHT22;7873;52.230;12.856;2023-02-18T16:15:41;26.90;36.30
15543;DHT22;7873;52.230;12.856;2023-02-18T16:18:17;27.00;36.40
15543;DHT22;7873;52.230;12.856;2023-02-18T16:20:53;27.30;36.50
15543;DHT22;7873;52.230;12.856;2023-02-18T16:23:29;27.40;35.90
15543;DHT22;7873;52.230;12.856;2023-02-18T16:28:48;27.50;35.90
15543;DHT22;7873;52.230;12.856;2023-02-18T16:31:17;27.50;35.40
15543;DHT22;7873;52.230;12.856;2023-02-18T16:33:45;27.50;36.50
15543;DHT22;7873;52.230;12.856;2023-02-18T16:36:14;27.40;35.50
15543;DHT22;7873;52.230;12.856;2023-02-18T16:38:43;27.40;35.40
15543;DHT22;7873;52.230;12.856;2023-02-18T16:41:11;27.50;35.40
15543;DHT22;7873;52.230;12.856;2023-02-18T16:43:38;27.70;35.00
15543;DHT22;7873;52.230;12.856;2023-02-18T16:46:06;27.90;35.40
15543;DHT22;7873;52.230;12.856;2023-02-18T16:48:35;28.10;35.30
15543;DHT22;7873;52.230;12.856;2023-02-18T16:51:05;27.90;34.60
15543;DHT22;7873;52.230;12.856;2023-02-18T16:53:37;27.70;35.70
15543;DHT22;7873;52.230;12.856;2023-02-18T16:56:04;27.50;36.00
15543;DHT22;7873;52.230;12.856;2023-02-18T16:58:32;27.40;35.90
15543;DHT22;7873;52.230;12.856;2023-02-18T17:00:58;27.30;36.10
15543;DHT22;7873;52.230;12.856;2023-02-18T17:03:25;27.30;36.30
15543;DHT22;7873;52.230;12.856;2023-02-18T17:05:52;27.20;36.20
15543;DHT22;7873;52.230;12.856;2023-02-18T17:08:20;27.10;36.50
15543;DHT22;7873;52.230;12.856;2023-02-18T17:10:50;27.10;35.90
15543;DHT22;7873;52.230;12.856;2023-02-18T17:13:18;27.00;36.60
15543;DHT22;7873;52.230;12.856;2023-02-18T17:15:47;27.10;36.80
15543;DHT22;7873;52.230;12.856;2023-02-18T17:18:16;27.00;36.60
15543;DHT22;7873;52.230;12.856;2023-02-18T17:20:43;26.90;36.90
15543;DHT22;7873;52.230;12.856;2023-02-18T17:23:13;26.70;36.80
15543;DHT22;7873;52.230;12.856;2023-02-18T17:25:41;26.60;37.00
15543;DHT22;7873;52.230;12.856;2023-02-18T17:28:09;26.50;37.80
15543;DHT22;7873;52.230;12.856;2023-02-18T17:30:37;26.30;37.80
15543;DHT22;7873;52.230;12.856;2023-02-18T17:33:05;26.30;37.90